sensor_id;sensor_type;location;lat;lon;timestamp;pressure;altitude;pressure_sealevel;temperature;humidity
11343;BME280;5726;42.160;24.746;2024-01-30T00:01:22;101766.97;;;4.68;68.19
11343;BME280;5726;42.160;24.746;2024-01-30T00:03:48;101769.03;;;4.66;68.49
11343;BME280;5726;42.160;24.746;2024-01-30T00:06:13;101769.63;;;4.61;68.47
11343;BME280;5726;42.160;24.746;2024-01-30T00:08:39;101770.47;;;4.68;68.46
11343;BME280;5726;42.160;24.746;2024-01-30T00:11:04;101773.75;;;4.70;68.42
11343;BME280;5726;42.160;24.746;2024-01-30T00:13:30;101774.06;;;4.94;67.57
11343;BME280;5726;42.160;24.746;2024-01-30T00:15:56;101771.88;;;4.98;67.46
11343;BME280;5726;42.160;24.746;2024-01-30T00:18:21;101770.13;;;4.84;68.00
11343;BME280;5726;42.160;24.746;2024-01-30T00:20:47;101770.97;;;4.84;68.05
11343;BME280;5726;42.160;24.746;2024-01-30T00:23:13;101776.31;;;4.91;67.55
11343;BME280;5726;42.160;24.746;2024-01-30T00:25:38;101774.66;;;4.90;67.55
11343;BME280;5726;42.160;24.746;2024-01-30T00:28:04;101764.22;;;4.82;67.76
11343;BME280;5726;42.160;24.746;2024-01-30T00:30:29;101771.41;;;4.94;67.23
11343;BME280;5726;42.160;24.746;2024-01-30T00:32:55;101765.72;;;4.97;67.10
11343;BME280;5726;42.160;24.746;2024-01-30T00:35:20;101777.97;;;4.92;67.39
11343;BME280;5726;42.160;24.746;2024-01-30T00:37:48;101775.66;;;4.82;67.48
11343;BME280;5726;42.160;24.746;2024-01-30T00:40:13;101770.19;;;4.90;67.39
11343;BME280;5726;42.160;24.746;2024-01-30T00:42:43;101775.66;;;4.82;67.84
11343;BME280;5726;42.160;24.746;2024-01-30T00:45:15;101779.53;;;4.80;67.70
11343;BME280;5726;42.160;24.746;2024-01-30T00:47:42;101772.84;;;4.90;67.66
11343;BME280;5726;42.160;24.746;2024-01-30T00:50:08;101777.31;;;4.83;67.72
11343;BME280;5726;42.160;24.746;2024-01-30T00:52:33;101778.38;;;4.95;67.58
11343;BME280;5726;42.160;24.746;2024-01-30T00:55:00;101775.53;;;4.97;67.23
11343;BME280;5726;42.160;24.746;2024-01-30T00:57:25;101776.75;;;4.94;67.38
11343;BME280;5726;42.160;24.746;2024-01-30T00:59:51;101767.56;;;5.03;67.42
11343;BME280;5726;42.160;24.746;2024-01-30T01:02:16;101776.44;;;5.17;66.99
11343;BME280;5726;42.160;24.746;2024-01-30T01:04:45;101775.16;;;5.06;67.08
11343;BME280;5726;42.160;24.746;2024-01-30T01:07:11;101775.41;;;5.18;66.60
11343;BME280;5726;42.160;24.746;2024-01-30T01:09:36;101782.19;;;5.26;65.97
11343;BME280;5726;42.160;24.746;2024-01-30T01:12:03;101769.16;;;5.44;65.67
11343;BME280;5726;42.160;24.746;2024-01-30T01:14:28;101771.16;;;5.29;66.09
11343;BME280;5726;42.160;24.746;2024-01-30T01:16:54;101770.53;;;5.27;66.18
11343;BME280;5726;42.160;24.746;2024-01-30T01:19:19;101771.38;;;5.28;66.26
11343;BME280;5726;42.160;24.746;2024-01-30T01:21:45;101760.94;;;5.39;65.89
11343;BME280;5726;42.160;24.746;2024-01-30T01:24:10;101761.78;;;5.53;66.15
11343;BME280;5726;42.160;24.746;2024-01-30T01:26:36;101751.78;;;5.55;65.98
11343;BME280;5726;42.160;24.746;2024-01-30T01:29:02;101752.81;;;5.54;66.01
11343;BME280;5726;42.160;24.746;2024-01-30T01:31:35;101745.88;;;5.59;66.20
11343;BME280;5726;42.160;24.746;2024-01-30T01:34:05;101749.13;;;5.61;66.06
11343;BME280;5726;42.160;24.746;2024-01-30T01:36:31;101747.88;;;5.44;66.63
11343;BME280;5726;42.160;24.746;2024-01-30T01:38:56;101751.16;;;5.53;66.42
11343;BME280;5726;42.160;24.746;2024-01-30T01:41:22;101745.81;;;5.40;67.31
11343;BME280;5726;42.160;24.746;2024-01-30T01:43:47;101747.47;;;5.47;67.00
11343;BME280;5726;42.160;24.746;2024-01-30T01:46:13;101741.72;;;5.37;67.28
11343;BME280;5726;42.160;24.746;2024-01-30T01:48:38;101747.66;;;5.39;67.26
11343;BME280;5726;42.160;24.746;2024-01-30T01:51:05;101746.44;;;5.35;67.33
11343;BME280;5726;42.160;24.746;2024-01-30T01:53:32;101751.09;;;5.33;67.42
11343;BME280;5726;42.160;24.746;2024-01-30T01:55:57;101750.31;;;5.33;67.23
11343;BME280;5726;42.160;24.746;2024-01-30T01:58:26;101751.50;;;5.30;67.16
11343;BME280;5726;42.160;24.746;2024-01-30T02:00:54;101754.38;;;5.29;67.82
11343;BME280;5726;42.160;24.746;2024-01-30T02:03:21;101750.69;;;5.30;69.38
11343;BME280;5726;42.160;24.746;2024-01-30T02:05:47;101749.88;;;5.29;68.66
11343;BME280;5726;42.160;24.746;2024-01-30T02:08:13;101756.81;;;5.24;69.11
11343;BME280;5726;42.160;24.746;2024-01-30T02:10:38;101762.53;;;5.15;69.37
11343;BME280;5726;42.160;24.746;2024-01-30T02:13:04;101755.13;;;5.04;69.06
11343;BME280;5726;42.160;24.746;2024-01-30T02:15:30;101755.13;;;5.04;68.90
11343;BME280;5726;42.160;24.746;2024-01-30T02:17:56;101756.34;;;5.08;68.46
11343;BME280;5726;42.160;24.746;2024-01-30T02:20:23;101753.06;;;4.99;68.97
11343;BME280;5726;42.160;24.746;2024-01-30T02:22:52;101760.69;;;4.75;69.33
11343;BME280;5726;42.160;24.746;2024-01-30T02:25:18;101759.53;;;4.50;70.90
11343;BME280;5726;42.160;24.746;2024-01-30T02:27:43;101766.16;;;4.61;70.58
11343;BME280;5726;42.160;24.746;2024-01-30T02:30:09;101764.81;;;4.84;69.53
11343;BME280;5726;42.160;24.746;2024-01-30T02:32:35;101766.06;;;4.48;71.91
11343;BME280;5726;42.160;24.746;2024-01-30T02:35:00;101764.81;;;4.17;72.19
11343;BME280;5726;42.160;24.746;2024-01-30T02:37:26;101774.31;;;4.05;74.22
11343;BME280;5726;42.160;24.746;2024-01-30T02:39:51;101767.66;;;4.15;73.05
11343;BME280;5726;42.160;24.746;2024-01-30T02:42:17;101775.19;;;4.12;72.64
11343;BME280;5726;42.160;24.746;2024-01-30T02:44:43;101773.19;;;3.93;73.74
11343;BME280;5726;42.160;24.746;2024-01-30T02:47:08;101778.91;;;3.96;73.23
11343;BME280;5726;42.160;24.746;2024-01-30T02:49:34;101773.25;;;3.78;73.94
11343;BME280;5726;42.160;24.746;2024-01-30T02:51:59;101771.03;;;3.82;74.60
11343;BME280;5726;42.160;24.746;2024-01-30T02:54:25;101773.38;;;3.91;74.41
11343;BME280;5726;42.160;24.746;2024-01-30T02:56:50;101779.09;;;4.16;73.12
11343;BME280;5726;42.160;24.746;2024-01-30T02:59:16;101775.03;;;4.20;72.14
11343;BME280;5726;42.160;24.746;2024-01-30T03:01:45;101780.41;;;4.05;74.54
11343;BME280;5726;42.160;24.746;2024-01-30T03:04:11;101785.06;;;3.76;75.51
11343;BME280;5726;42.160;24.746;2024-01-30T03:06:37;101782.66;;;3.60;77.05
11343;BME280;5726;42.160;24.746;2024-01-30T03:09:03;101773.13;;;3.45;76.67
11343;BME280;5726;42.160;24.746;2024-01-30T03:11:30;101776.03;;;3.50;76.34
11343;BME280;5726;42.160;24.746;2024-01-30T03:13:56;101772.94;;;3.67;75.42
11343;BME280;5726;42.160;24.746;2024-01-30T03:16:21;101775.69;;;3.80;74.46
11343;BME280;5726;42.160;24.746;2024-01-30T03:18:47;101782.84;;;3.79;73.88
11343;BME280;5726;42.160;24.746;2024-01-30T03:21:13;101773.13;;;3.86;73.06
11343;BME280;5726;42.160;24.746;2024-01-30T03:23:39;101778.16;;;3.61;74.34
11343;BME280;5726;42.160;24.746;2024-01-30T03:26:05;101777.97;;;3.62;74.51
11343;BME280;5726;42.160;24.746;2024-01-30T03:28:32;101769.72;;;3.72;73.65
11343;BME280;5726;42.160;24.746;2024-01-30T03:30:57;101766.59;;;3.68;73.78
11343;BME280;5726;42.160;24.746;2024-01-30T03:33:23;101770.53;;;3.72;73.53
11343;BME280;5726;42.160;24.746;2024-01-30T03:35:48;101767.81;;;3.86;73.19
11343;BME280;5726;42.160;24.746;2024-01-30T03:38:14;101772.56;;;4.18;71.42
11343;BME280;5726;42.160;24.746;2024-01-30T03:40:39;101773.25;;;3.58;74.02
11343;BME280;5726;42.160;24.746;2024-01-30T03:43:05;101766.22;;;3.50;74.79
11343;BME280;5726;42.160;24.746;2024-01-30T03:45:31;101776.44;;;3.53;74.55
11343;BME280;5726;42.160;24.746;2024-01-30T03:47:56;101763.84;;;3.76;73.74
11343;BME280;5726;42.160;24.746;2024-01-30T03:50:22;101773.19;;;3.72;73.50
11343;BME280;5726;42.160;24.746;2024-01-30T03:52:47;101765.28;;;3.78;73.71
11343;BME280;5726;42.160;24.746;2024-01-30T03:55:13;101768.78;;;3.58;74.90
11343;BME280;5726;42.160;24.746;2024-01-30T03:57:38;101765.16;;;3.45;75.79
11343;BME280;5726;42.160;24.746;2024-01-30T04:00:04;101762.50;;;3.45;75.88
11343;BME280;5726;42.160;24.746;2024-01-30T04:02:30;101769.00;;;3.07;77.84
11343;BME280;5726;42.160;24.746;2024-01-30T04:04:56;101765.19;;;3.31;77.06
11343;BME280;5726;42.160;24.746;2024-01-30T04:07:21;101772.28;;;3.44;76.26
11343;BME280;5726;42.160;24.746;2024-01-30T04:09:47;101776.13;;;2.92;78.65
11343;BME280;5726;42.160;24.746;2024-01-30T04:12:12;101776.34;;;2.77;79.93
11343;BME280;5726;42.160;24.746;2024-01-30T04:14:40;101775.69;;;2.75;80.12
11343;BME280;5726;42.160;24.746;2024-01-30T04:17:05;101776.88;;;2.43;81.66
11343;BME280;5726;42.160;24.746;2024-01-30T04:19:31;101768.69;;;2.53;81.87
11343;BME280;5726;42.160;24.746;2024-01-30T04:21:56;101764.38;;;2.52;82.09
11343;BME280;5726;42.160;24.746;2024-01-30T04:24:22;101771.47;;;2.23;83.19
11343;BME280;5726;42.160;24.746;2024-01-30T04:26:47;101774.22;;;2.43;82.76
11343;BME280;5726;42.160;24.746;2024-01-30T04:29:13;101778.53;;;2.44;82.51
11343;BME280;5726;42.160;24.746;2024-01-30T04:31:38;101779.56;;;2.72;80.85
11343;BME280;5726;42.160;24.746;2024-01-30T04:34:04;101777.81;;;2.65;80.63
11343;BME280;5726;42.160;24.746;2024-01-30T04:36:29;101781.81;;;2.46;82.59
11343;BME280;5726;42.160;24.746;2024-01-30T04:38:55;101787.19;;;2.67;81.49
11343;BME280;5726;42.160;24.746;2024-01-30T04:41:20;101796.59;;;2.55;81.97
11343;BME280;5726;42.160;24.746;2024-01-30T04:43:46;101804.50;;;2.27;83.98
11343;BME280;5726;42.160;24.746;2024-01-30T04:46:11;101805.50;;;2.26;84.72
11343;BME280;5726;42.160;24.746;2024-01-30T04:48:37;101801.06;;;2.40;83.68
11343;BME280;5726;42.160;24.746;2024-01-30T04:51:03;101793.94;;;2.55;82.92
11343;BME280;5726;42.160;24.746;2024-01-30T04:53:30;101802.25;;;2.52;82.99
11343;BME280;5726;42.160;24.746;2024-01-30T04:55:56;101812.22;;;2.79;81.66
11343;BME280;5726;42.160;24.746;2024-01-30T04:58:22;101806.75;;;2.66;82.19
11343;BME280;5726;42.160;24.746;2024-01-30T05:00:47;101802.09;;;2.39;84.04
11343;BME280;5726;42.160;24.746;2024-01-30T05:03:18;101811.09;;;2.31;85.38
11343;BME280;5726;42.160;24.746;2024-01-30T05:05:43;101804.28;;;2.79;82.64
11343;BME280;5726;42.160;24.746;2024-01-30T05:08:09;101805.00;;;2.73;82.62
11343;BME280;5726;42.160;24.746;2024-01-30T05:10:34;101813.34;;;2.56;83.57
11343;BME280;5726;42.160;24.746;2024-01-30T05:13:00;101816.44;;;2.88;81.87
11343;BME280;5726;42.160;24.746;2024-01-30T05:15:25;101811.50;;;2.85;82.63
11343;BME280;5726;42.160;24.746;2024-01-30T05:17:51;101817.16;;;2.82;82.85
11343;BME280;5726;42.160;24.746;2024-01-30T05:20:17;101814.16;;;2.85;82.10
11343;BME280;5726;42.160;24.746;2024-01-30T05:22:43;101811.06;;;2.96;81.91
11343;BME280;5726;42.160;24.746;2024-01-30T05:25:11;101811.59;;;2.91;82.30
11343;BME280;5726;42.160;24.746;2024-01-30T05:27:37;101809.84;;;3.13;81.28
11343;BME280;5726;42.160;24.746;2024-01-30T05:30:04;101806.63;;;3.17;80.37
11343;BME280;5726;42.160;24.746;2024-01-30T05:32:30;101805.28;;;3.07;80.65
11343;BME280;5726;42.160;24.746;2024-01-30T05:34:56;101806.94;;;3.08;81.17
11343;BME280;5726;42.160;24.746;2024-01-30T05:37:21;101807.38;;;3.11;81.15
11343;BME280;5726;42.160;24.746;2024-01-30T05:39:47;101813.22;;;3.07;81.06
11343;BME280;5726;42.160;24.746;2024-01-30T05:42:12;101810.50;;;2.86;82.23
11343;BME280;5726;42.160;24.746;2024-01-30T05:44:38;101811.13;;;2.88;81.24
11343;BME280;5726;42.160;24.746;2024-01-30T05:47:03;101819.34;;;2.79;81.88
11343;BME280;5726;42.160;24.746;2024-01-30T05:49:29;101807.94;;;2.64;82.48
11343;BME280;5726;42.160;24.746;2024-01-30T05:51:54;101810.69;;;2.84;95.70
11343;BME280;5726;42.160;24.746;2024-01-30T05:54:21;101811.38;;;3.36;100.00
11343;BME280;5726;42.160;24.746;2024-01-30T05:56:46;101814.16;;;3.49;84.77
11343;BME280;5726;42.160;24.746;2024-01-30T05:59:12;101809.66;;;3.00;83.20
11343;BME280;5726;42.160;24.746;2024-01-30T06:01:37;101807.59;;;2.81;83.48
11343;BME280;5726;42.160;24.746;2024-01-30T06:04:03;101815.53;;;2.81;83.99
11343;BME280;5726;42.160;24.746;2024-01-30T06:06:28;101816.97;;;2.98;82.68
11343;BME280;5726;42.160;24.746;2024-01-30T06:08:54;101813.75;;;2.45;85.39
11343;BME280;5726;42.160;24.746;2024-01-30T06:11:21;101816.44;;;2.59;86.03
11343;BME280;5726;42.160;24.746;2024-01-30T06:13:46;101811.78;;;2.76;84.21
11343;BME280;5726;42.160;24.746;2024-01-30T06:16:12;101819.53;;;2.48;86.79
11343;BME280;5726;42.160;24.746;2024-01-30T06:18:38;101825.19;;;2.45;87.30
11343;BME280;5726;42.160;24.746;2024-01-30T06:21:04;101831.78;;;2.64;86.50
11343;BME280;5726;42.160;24.746;2024-01-30T06:23:30;101822.00;;;2.64;86.95
11343;BME280;5726;42.160;24.746;2024-01-30T06:25:55;101829.41;;;2.83;86.08
11343;BME280;5726;42.160;24.746;2024-01-30T06:28:21;101829.69;;;3.02;85.61
11343;BME280;5726;42.160;24.746;2024-01-30T06:30:47;101825.56;;;3.14;84.17
11343;BME280;5726;42.160;24.746;2024-01-30T06:33:13;101825.84;;;2.90;84.22
11343;BME280;5726;42.160;24.746;2024-01-30T06:35:40;101832.31;;;3.02;84.62
11343;BME280;5726;42.160;24.746;2024-01-30T06:38:06;101833.88;;;2.97;84.58
11343;BME280;5726;42.160;24.746;2024-01-30T06:40:31;101834.50;;;3.28;91.84
11343;BME280;5726;42.160;24.746;2024-01-30T06:42:57;101824.00;;;3.20;85.75
11343;BME280;5726;42.160;24.746;2024-01-30T06:45:22;101833.41;;;3.22;83.33
11343;BME280;5726;42.160;24.746;2024-01-30T06:47:48;101824.63;;;3.22;81.94
11343;BME280;5726;42.160;24.746;2024-01-30T06:50:14;101825.13;;;3.11;82.24
11343;BME280;5726;42.160;24.746;2024-01-30T06:52:39;101835.97;;;3.16;81.28
11343;BME280;5726;42.160;24.746;2024-01-30T06:55:05;101833.41;;;2.79;82.91
11343;BME280;5726;42.160;24.746;2024-01-30T06:57:30;101831.22;;;2.68;84.40
11343;BME280;5726;42.160;24.746;2024-01-30T06:59:56;101833.22;;;2.81;84.96
11343;BME280;5726;42.160;24.746;2024-01-30T07:02:22;101835.06;;;2.80;85.20
11343;BME280;5726;42.160;24.746;2024-01-30T07:04:47;101830.69;;;2.87;84.08
11343;BME280;5726;42.160;24.746;2024-01-30T07:07:13;101836.81;;;3.02;83.91
11343;BME280;5726;42.160;24.746;2024-01-30T07:09:40;101838.25;;;3.33;82.40
11343;BME280;5726;42.160;24.746;2024-01-30T07:12:06;101836.97;;;3.29;81.77
11343;BME280;5726;42.160;24.746;2024-01-30T07:14:32;101842.81;;;3.10;81.48
11343;BME280;5726;42.160;24.746;2024-01-30T07:16:57;101833.13;;;3.03;82.80
11343;BME280;5726;42.160;24.746;2024-01-30T07:19:23;101839.44;;;3.31;80.79
11343;BME280;5726;42.160;24.746;2024-01-30T07:21:48;101835.16;;;3.15;81.01
11343;BME280;5726;42.160;24.746;2024-01-30T07:24:14;101833.63;;;2.92;82.17
11343;BME280;5726;42.160;24.746;2024-01-30T07:26:39;101836.28;;;3.06;83.01
11343;BME280;5726;42.160;24.746;2024-01-30T07:29:05;101839.09;;;3.05;82.13
11343;BME280;5726;42.160;24.746;2024-01-30T07:31:31;101844.84;;;3.08;82.53
11343;BME280;5726;42.160;24.746;2024-01-30T07:33:56;101835.31;;;3.28;81.57
11343;BME280;5726;42.160;24.746;2024-01-30T07:36:22;101840.97;;;3.39;81.20
11343;BME280;5726;42.160;24.746;2024-01-30T07:38:47;101846.81;;;3.35;81.38
11343;BME280;5726;42.160;24.746;2024-01-30T07:41:13;101850.16;;;3.08;82.11
11343;BME280;5726;42.160;24.746;2024-01-30T07:43:39;101850.22;;;3.15;83.09
11343;BME280;5726;42.160;24.746;2024-01-30T07:46:04;101848.09;;;3.39;81.37
11343;BME280;5726;42.160;24.746;2024-01-30T07:48:34;101847.50;;;3.08;82.97
11343;BME280;5726;42.160;24.746;2024-01-30T07:51:00;101844.66;;;3.10;84.10
11343;BME280;5726;42.160;24.746;2024-01-30T07:53:25;101840.34;;;3.09;83.87
11343;BME280;5726;42.160;24.746;2024-01-30T07:55:52;101844.66;;;2.95;84.47
11343;BME280;5726;42.160;24.746;2024-01-30T07:58:17;101843.06;;;3.30;82.12
11343;BME280;5726;42.160;24.746;2024-01-30T08:00:44;101840.50;;;3.71;96.37
11343;BME280;5726;42.160;24.746;2024-01-30T08:03:10;101846.53;;;4.21;99.51
11343;BME280;5726;42.160;24.746;2024-01-30T08:05:35;101845.25;;;4.17;81.27
11343;BME280;5726;42.160;24.746;2024-01-30T08:08:01;101842.78;;;3.74;81.38
11343;BME280;5726;42.160;24.746;2024-01-30T08:10:26;101838.13;;;3.76;79.75
11343;BME280;5726;42.160;24.746;2024-01-30T08:12:52;101838.75;;;3.78;76.87
11343;BME280;5726;42.160;24.746;2024-01-30T08:15:17;101849.34;;;3.57;77.02
11343;BME280;5726;42.160;24.746;2024-01-30T08:17:43;101841.31;;;3.51;77.57
11343;BME280;5726;42.160;24.746;2024-01-30T08:20:10;101843.25;;;3.42;77.58
11343;BME280;5726;42.160;24.746;2024-01-30T08:22:38;101839.19;;;3.11;78.75
11343;BME280;5726;42.160;24.746;2024-01-30T08:25:05;101839.47;;;3.51;78.51
11343;BME280;5726;42.160;24.746;2024-01-30T08:27:31;101834.19;;;3.37;79.39
11343;BME280;5726;42.160;24.746;2024-01-30T08:29:56;101833.72;;;3.48;78.93
11343;BME280;5726;42.160;24.746;2024-01-30T08:32:22;101830.97;;;3.41;78.31
11343;BME280;5726;42.160;24.746;2024-01-30T08:34:49;101836.31;;;3.62;77.23
11343;BME280;5726;42.160;24.746;2024-01-30T08:37:14;101843.13;;;3.50;77.67
11343;BME280;5726;42.160;24.746;2024-01-30T08:39:43;101832.56;;;3.92;77.12
11343;BME280;5726;42.160;24.746;2024-01-30T08:42:08;101835.66;;;4.37;75.28
11343;BME280;5726;42.160;24.746;2024-01-30T08:44:34;101830.97;;;4.18;75.28
11343;BME280;5726;42.160;24.746;2024-01-30T08:46:59;101836.53;;;4.02;75.85
11343;BME280;5726;42.160;24.746;2024-01-30T08:49:25;101838.38;;;3.81;77.00
11343;BME280;5726;42.160;24.746;2024-01-30T08:51:50;101829.78;;;4.21;74.02
11343;BME280;5726;42.160;24.746;2024-01-30T08:54:16;101832.94;;;4.10;74.30
11343;BME280;5726;42.160;24.746;2024-01-30T08:56:41;101833.59;;;4.12;72.99
11343;BME280;5726;42.160;24.746;2024-01-30T08:59:07;101837.25;;;3.90;73.39
11343;BME280;5726;42.160;24.746;2024-01-30T09:01:32;101831.16;;;4.17;72.87
11343;BME280;5726;42.160;24.746;2024-01-30T09:03:58;101829.47;;;3.88;73.78
11343;BME280;5726;42.160;24.746;2024-01-30T09:06:23;101830.38;;;4.16;72.62
11343;BME280;5726;42.160;24.746;2024-01-30T09:08:51;101824.59;;;3.92;74.04
11343;BME280;5726;42.160;24.746;2024-01-30T09:11:17;101826.94;;;4.22;72.50
11343;BME280;5726;42.160;24.746;2024-01-30T09:13:42;101831.91;;;4.31;70.89
11343;BME280;5726;42.160;24.746;2024-01-30T09:16:08;101825.56;;;4.53;71.00
11343;BME280;5726;42.160;24.746;2024-01-30T09:18:34;101821.75;;;4.62;70.24
11343;BME280;5726;42.160;24.746;2024-01-30T09:20:59;101821.88;;;4.54;70.15
11343;BME280;5726;42.160;24.746;2024-01-30T09:23:27;101814.97;;;4.32;71.19
11343;BME280;5726;42.160;24.746;2024-01-30T09:25:52;101810.84;;;4.57;69.70
11343;BME280;5726;42.160;24.746;2024-01-30T09:28:18;101812.00;;;4.48;69.50
11343;BME280;5726;42.160;24.746;2024-01-30T09:30:43;101815.78;;;4.60;69.55
11343;BME280;5726;42.160;24.746;2024-01-30T09:33:09;101812.59;;;4.44;70.89
11343;BME280;5726;42.160;24.746;2024-01-30T09:35:36;101807.00;;;4.60;70.05
11343;BME280;5726;42.160;24.746;2024-01-30T09:38:02;101802.88;;;4.84;69.79
11343;BME280;5726;42.160;24.746;2024-01-30T09:40:28;101806.56;;;4.90;69.68
11343;BME280;5726;42.160;24.746;2024-01-30T09:42:53;101798.72;;;4.75;69.98
11343;BME280;5726;42.160;24.746;2024-01-30T09:45:19;101800.03;;;4.86;69.83
11343;BME280;5726;42.160;24.746;2024-01-30T09:47:45;101793.81;;;4.73;70.58
11343;BME280;5726;42.160;24.746;2024-01-30T09:50:13;101797.09;;;4.81;70.25
11343;BME280;5726;42.160;24.746;2024-01-30T09:52:39;101794.34;;;5.02;69.15
11343;BME280;5726;42.160;24.746;2024-01-30T09:55:06;101788.66;;;5.11;68.77
11343;BME280;5726;42.160;24.746;2024-01-30T09:57:32;101792.66;;;4.88;69.86
11343;BME280;5726;42.160;24.746;2024-01-30T09:59:58;101782.44;;;4.91;70.03
11343;BME280;5726;42.160;24.746;2024-01-30T10:02:23;101779.28;;;5.09;69.53
11343;BME280;5726;42.160;24.746;2024-01-30T10:04:50;101785.00;;;5.19;68.88
11343;BME280;5726;42.160;24.746;2024-01-30T10:07:17;101790.34;;;5.19;68.47
11343;BME280;5726;42.160;24.746;2024-01-30T10:09:42;101790.53;;;5.17;68.63
11343;BME280;5726;42.160;24.746;2024-01-30T10:12:11;101777.31;;;5.36;68.50
11343;BME280;5726;42.160;24.746;2024-01-30T10:14:41;101774.09;;;5.60;66.64
11343;BME280;5726;42.160;24.746;2024-01-30T10:17:11;101771.41;;;5.47;66.93
11343;BME280;5726;42.160;24.746;2024-01-30T10:19:40;101774.44;;;5.31;68.57
11343;BME280;5726;42.160;24.746;2024-01-30T10:22:06;101773.03;;;5.35;68.32
11343;BME280;5726;42.160;24.746;2024-01-30T10:24:35;101776.78;;;5.73;67.19
11343;BME280;5726;42.160;24.746;2024-01-30T10:27:01;101776.63;;;5.81;66.33
11343;BME280;5726;42.160;24.746;2024-01-30T10:29:28;101775.81;;;5.74;66.74
11343;BME280;5726;42.160;24.746;2024-01-30T10:32:06;101775.41;;;5.90;66.70
11343;BME280;5726;42.160;24.746;2024-01-30T10:34:33;101777.47;;;6.01;66.01
11343;BME280;5726;42.160;24.746;2024-01-30T10:37:08;101767.00;;;6.44;62.85
11343;BME280;5726;42.160;24.746;2024-01-30T10:39:43;101767.44;;;6.16;63.93
11343;BME280;5726;42.160;24.746;2024-01-30T10:42:14;101765.59;;;6.35;63.19
11343;BME280;5726;42.160;24.746;2024-01-30T10:45:11;101763.13;;;6.27;64.33
11343;BME280;5726;42.160;24.746;2024-01-30T10:47:50;101761.91;;;6.17;64.21
11343;BME280;5726;42.160;24.746;2024-01-30T10:50:16;101763.31;;;6.32;63.82
11343;BME280;5726;42.160;24.746;2024-01-30T10:52:42;101763.94;;;6.28;63.15
11343;BME280;5726;42.160;24.746;2024-01-30T10:55:09;101758.19;;;6.50;63.09
11343;BME280;5726;42.160;24.746;2024-01-30T10:57:35;101748.75;;;6.48;63.45
11343;BME280;5726;42.160;24.746;2024-01-30T11:00:04;101751.81;;;6.45;61.64
11343;BME280;5726;42.160;24.746;2024-01-30T11:02:42;101747.91;;;6.60;61.91
11343;BME280;5726;42.160;24.746;2024-01-30T11:05:09;101747.84;;;6.86;60.66
11343;BME280;5726;42.160;24.746;2024-01-30T11:07:35;101746.75;;;7.00;59.72
11343;BME280;5726;42.160;24.746;2024-01-30T11:10:04;101750.13;;;6.76;60.45
11343;BME280;5726;42.160;24.746;2024-01-30T11:12:32;101744.78;;;6.82;60.55
11343;BME280;5726;42.160;24.746;2024-01-30T11:15:04;101746.66;;;6.69;60.22
11343;BME280;5726;42.160;24.746;2024-01-30T11:20:15;101737.41;;;6.78;60.64
11343;BME280;5726;42.160;24.746;2024-01-30T11:22:51;101744.06;;;7.06;60.19
11343;BME280;5726;42.160;24.746;2024-01-30T11:25:19;101735.47;;;7.41;58.32
11343;BME280;5726;42.160;24.746;2024-01-30T11:27:46;101729.16;;;7.36;58.87
11343;BME280;5726;42.160;24.746;2024-01-30T11:30:23;101731.09;;;7.53;58.27
11343;BME280;5726;42.160;24.746;2024-01-30T11:33:12;101724.63;;;7.36;57.77
11343;BME280;5726;42.160;24.746;2024-01-30T11:35:39;101715.75;;;7.73;57.27
11343;BME280;5726;42.160;24.746;2024-01-30T11:38:06;101710.72;;;7.89;56.83
11343;BME280;5726;42.160;24.746;2024-01-30T11:40:33;101710.97;;;8.06;56.42
11343;BME280;5726;42.160;24.746;2024-01-30T11:43:00;101716.97;;;8.25;56.58
11343;BME280;5726;42.160;24.746;2024-01-30T11:45:27;101712.22;;;8.27;56.64
11343;BME280;5726;42.160;24.746;2024-01-30T11:47:54;101702.00;;;8.42;55.02
11343;BME280;5726;42.160;24.746;2024-01-30T11:50:20;101695.38;;;8.03;56.56
11343;BME280;5726;42.160;24.746;2024-01-30T11:52:46;101688.25;;;7.97;56.68
11343;BME280;5726;42.160;24.746;2024-01-30T11:55:12;101682.91;;;8.21;54.23
11343;BME280;5726;42.160;24.746;2024-01-30T11:57:38;101685.38;;;8.40;53.25
11343;BME280;5726;42.160;24.746;2024-01-30T12:00:04;101672.66;;;7.94;55.46
11343;BME280;5726;42.160;24.746;2024-01-30T12:02:38;101667.13;;;7.89;55.91
11343;BME280;5726;42.160;24.746;2024-01-30T12:05:07;101672.38;;;8.02;55.64
11343;BME280;5726;42.160;24.746;2024-01-30T12:07:33;101663.75;;;8.24;54.65
11343;BME280;5726;42.160;24.746;2024-01-30T12:09:59;101666.75;;;8.09;54.99
11343;BME280;5726;42.160;24.746;2024-01-30T12:12:26;101667.56;;;8.34;54.03
11343;BME280;5726;42.160;24.746;2024-01-30T12:14:51;101658.78;;;8.45;53.77
11343;BME280;5726;42.160;24.746;2024-01-30T12:22:30;101637.56;;;8.97;52.44
11343;BME280;5726;42.160;24.746;2024-01-30T12:24:56;101637.25;;;8.76;52.80
11343;BME280;5726;42.160;24.746;2024-01-30T12:27:21;101628.50;;;8.51;53.54
11343;BME280;5726;42.160;24.746;2024-01-30T12:29:47;101620.63;;;8.38;53.83
11343;BME280;5726;42.160;24.746;2024-01-30T12:32:16;101623.41;;;8.07;54.31
11343;BME280;5726;42.160;24.746;2024-01-30T12:34:42;101621.66;;;8.37;54.16
11343;BME280;5726;42.160;24.746;2024-01-30T12:37:07;101629.56;;;8.32;53.96
11343;BME280;5726;42.160;24.746;2024-01-30T12:39:35;101621.97;;;8.47;53.69
11343;BME280;5726;42.160;24.746;2024-01-30T12:42:02;101627.03;;;8.37;54.33
11343;BME280;5726;42.160;24.746;2024-01-30T12:44:28;101624.84;;;8.63;53.34
11343;BME280;5726;42.160;24.746;2024-01-30T12:46:54;101626.72;;;8.45;54.32
11343;BME280;5726;42.160;24.746;2024-01-30T12:49:20;101620.91;;;8.48;53.66
11343;BME280;5726;42.160;24.746;2024-01-30T12:51:46;101624.88;;;8.28;54.23
11343;BME280;5726;42.160;24.746;2024-01-30T12:54:12;101623.16;;;8.33;53.84
11343;BME280;5726;42.160;24.746;2024-01-30T12:56:38;101617.66;;;8.46;53.60
11343;BME280;5726;42.160;24.746;2024-01-30T12:59:04;101607.41;;;8.61;53.33
11343;BME280;5726;42.160;24.746;2024-01-30T13:01:29;101605.16;;;8.58;53.27
11343;BME280;5726;42.160;24.746;2024-01-30T13:03:55;101606.22;;;8.39;53.61